sensor_id;sensor_type;location;lat;lon;timestamp;pressure;altitude;pressure_sealevel;temperature;humidity
68075;BME280;54864;52.002;5.468;2023-04-16T00:00:45;102042.91;;;10.10;89.19
68075;BME280;54864;52.002;5.468;2023-04-16T00:01:47;102044.25;;;9.91;89.75
68075;BME280;54864;52.002;5.468;2023-04-16T00:02:48;102036.84;;;10.06;89.32
68075;BME280;54864;52.002;5.468;2023-04-16T00:03:49;102035.94;;;9.69;90.41
68075;BME280;54864;52.002;5.468;2023-04-16T00:04:50;102042.75;;;9.79;91.32
68075;BME280;54864;52.002;5.468;2023-04-16T00:05:52;102045.09;;;9.93;90.70
68075;BME280;54864;52.002;5.468;2023-04-16T00:06:56;102043.19;;;9.99;90.83
68075;BME280;54864;52.002;5.468;2023-04-16T00:07:57;102039.38;;;10.11;89.76
68075;BME280;54864;52.002;5.468;2023-04-16T00:08:58;102036.44;;;10.25;89.47
68075;BME280;54864;52.002;5.468;2023-04-16T00:10:01;102050.63;;;10.17;89.21
68075;BME280;54864;52.002;5.468;2023-04-16T00:11:02;102041.84;;;10.18;89.30
68075;BME280;54864;52.002;5.468;2023-04-16T00:12:05;102039.31;;;10.14;89.08
68075;BME280;54864;52.002;5.468;2023-04-16T00:13:05;102042.69;;;10.19;89.06
68075;BME280;54864;52.002;5.468;2023-04-16T00:14:07;102044.16;;;10.32;88.20
68075;BME280;54864;52.002;5.468;2023-04-16T00:15:08;102040.47;;;10.39;87.89
68075;BME280;54864;52.002;5.468;2023-04-16T00:16:10;102048.41;;;10.38;87.93
68075;BME280;54864;52.002;5.468;2023-04-16T00:17:11;102048.50;;;10.35;88.06
68075;BME280;54864;52.002;5.468;2023-04-16T00:18:13;102050.25;;;10.34;88.01
68075;BME280;54864;52.002;5.468;2023-04-16T00:19:14;102044.84;;;10.03;89.12
68075;BME280;54864;52.002;5.468;2023-04-16T00:20:15;102045.41;;;10.16;89.19
68075;BME280;54864;52.002;5.468;2023-04-16T00:21:16;102042.47;;;10.30;88.77
68075;BME280;54864;52.002;5.468;2023-04-16T00:22:19;102049.78;;;10.17;89.16
68075;BME280;54864;52.002;5.468;2023-04-16T00:23:19;102045.09;;;10.30;89.09
68075;BME280;54864;52.002;5.468;2023-04-16T00:24:21;102050.19;;;10.37;88.53
68075;BME280;54864;52.002;5.468;2023-04-16T00:25:24;102044.19;;;10.31;88.64
68075;BME280;54864;52.002;5.468;2023-04-16T00:26:25;102045.81;;;10.36;88.90
68075;BME280;54864;52.002;5.468;2023-04-16T00:27:26;102042.22;;;10.40;88.26
68075;BME280;54864;52.002;5.468;2023-04-16T00:28:30;102044.84;;;10.42;88.35
68075;BME280;54864;52.002;5.468;2023-04-16T00:29:31;102043.88;;;10.44;87.97
68075;BME280;54864;52.002;5.468;2023-04-16T00:30:37;102050.16;;;10.39;88.52
68075;BME280;54864;52.002;5.468;2023-04-16T00:31:37;102049.75;;;10.20;88.86
68075;BME280;54864;52.002;5.468;2023-04-16T00:32:39;102045.81;;;9.99;90.52
68075;BME280;54864;52.002;5.468;2023-04-16T00:33:40;102046.53;;;10.06;90.69
68075;BME280;54864;52.002;5.468;2023-04-16T00:34:42;102050.69;;;10.16;90.40
68075;BME280;54864;52.002;5.468;2023-04-16T00:35:44;102047.53;;;10.00;90.52
68075;BME280;54864;52.002;5.468;2023-04-16T00:36:46;102046.28;;;9.79;91.61
68075;BME280;54864;52.002;5.468;2023-04-16T00:37:47;102044.25;;;9.91;92.08
68075;BME280;54864;52.002;5.468;2023-04-16T00:38:48;102053.81;;;9.95;92.37
68075;BME280;54864;52.002;5.468;2023-04-16T00:39:49;102042.84;;;9.76;93.06
68075;BME280;54864;52.002;5.468;2023-04-16T00:40:53;102047.19;;;9.77;93.96
68075;BME280;54864;52.002;5.468;2023-04-16T00:41:53;102037.44;;;9.82;93.77
68075;BME280;54864;52.002;5.468;2023-04-16T00:42:55;102047.06;;;9.83;93.51
68075;BME280;54864;52.002;5.468;2023-04-16T00:43:56;102044.44;;;9.83;94.18
68075;BME280;54864;52.002;5.468;2023-04-16T00:44:57;102037.81;;;9.64;94.56
68075;BME280;54864;52.002;5.468;2023-04-16T00:46:04;102046.56;;;9.64;95.03
68075;BME280;54864;52.002;5.468;2023-04-16T00:47:06;102037.72;;;9.68;95.29
68075;BME280;54864;52.002;5.468;2023-04-16T00:48:07;102046.44;;;9.70;95.35
68075;BME280;54864;52.002;5.468;2023-04-16T00:49:08;102043.59;;;9.81;95.02
68075;BME280;54864;52.002;5.468;2023-04-16T00:50:10;102039.19;;;9.81;94.57
68075;BME280;54864;52.002;5.468;2023-04-16T00:51:12;102047.72;;;9.93;94.23
68075;BME280;54864;52.002;5.468;2023-04-16T00:52:13;102044.03;;;10.00;94.61
68075;BME280;54864;52.002;5.468;2023-04-16T00:53:17;102045.00;;;9.96;94.17
68075;BME280;54864;52.002;5.468;2023-04-16T00:54:19;102044.94;;;9.99;93.93
68075;BME280;54864;52.002;5.468;2023-04-16T00:55:20;102043.94;;;10.04;93.45
68075;BME280;54864;52.002;5.468;2023-04-16T00:56:23;102048.28;;;9.67;94.45
68075;BME280;54864;52.002;5.468;2023-04-16T00:57:29;102045.19;;;9.88;94.79
68075;BME280;54864;52.002;5.468;2023-04-16T00:58:30;102037.84;;;10.02;94.19
68075;BME280;54864;52.002;5.468;2023-04-16T00:59:32;102044.66;;;10.11;93.16
68075;BME280;54864;52.002;5.468;2023-04-16T01:00:32;102039.81;;;9.93;94.10
68075;BME280;54864;52.002;5.468;2023-04-16T01:01:34;102034.09;;;9.72;95.08
68075;BME280;54864;52.002;5.468;2023-04-16T01:02:35;102049.41;;;9.95;94.79
68075;BME280;54864;52.002;5.468;2023-04-16T01:03:38;102036.38;;;9.89;93.71
68075;BME280;54864;52.002;5.468;2023-04-16T01:04:40;102032.97;;;9.85;94.60
68075;BME280;54864;52.002;5.468;2023-04-16T01:05:42;102038.84;;;9.97;93.88
68075;BME280;54864;52.002;5.468;2023-04-16T01:06:43;102044.75;;;10.06;93.74
68075;BME280;54864;52.002;5.468;2023-04-16T01:07:44;102047.25;;;10.12;93.45
68075;BME280;54864;52.002;5.468;2023-04-16T01:08:45;102033.50;;;10.00;93.40
68075;BME280;54864;52.002;5.468;2023-04-16T01:09:47;102045.13;;;9.91;93.23
68075;BME280;54864;52.002;5.468;2023-04-16T01:10:48;102031.63;;;9.66;94.92
68075;BME280;54864;52.002;5.468;2023-04-16T01:11:51;102040.09;;;9.80;95.41
68075;BME280;54864;52.002;5.468;2023-04-16T01:12:51;102037.19;;;9.93;94.67
68075;BME280;54864;52.002;5.468;2023-04-16T01:13:53;102033.34;;;9.67;95.20
68075;BME280;54864;52.002;5.468;2023-04-16T01:14:54;102044.47;;;9.81;95.16
68075;BME280;54864;52.002;5.468;2023-04-16T01:15:56;102039.84;;;9.91;94.73
68075;BME280;54864;52.002;5.468;2023-04-16T01:16:57;102038.72;;;10.01;94.47
68075;BME280;54864;52.002;5.468;2023-04-16T01:17:58;102039.53;;;10.05;93.97
68075;BME280;54864;52.002;5.468;2023-04-16T01:18:59;102034.16;;;10.09;93.93
68075;BME280;54864;52.002;5.468;2023-04-16T01:20:01;102039.03;;;9.89;94.24
68075;BME280;54864;52.002;5.468;2023-04-16T01:21:03;102034.22;;;10.06;94.25
68075;BME280;54864;52.002;5.468;2023-04-16T01:22:05;102035.13;;;10.05;93.46
68075;BME280;54864;52.002;5.468;2023-04-16T01:23:06;102040.69;;;9.93;93.70
68075;BME280;54864;52.002;5.468;2023-04-16T01:24:08;102041.50;;;9.95;94.35
68075;BME280;54864;52.002;5.468;2023-04-16T01:25:13;102042.25;;;10.02;94.18
68075;BME280;54864;52.002;5.468;2023-04-16T01:26:15;102040.44;;;10.04;94.14
68075;BME280;54864;52.002;5.468;2023-04-16T01:27:16;102039.53;;;10.05;93.89
68075;BME280;54864;52.002;5.468;2023-04-16T01:28:18;102042.00;;;10.11;93.65
68075;BME280;54864;52.002;5.468;2023-04-16T01:29:19;102043.97;;;10.03;93.12
68075;BME280;54864;52.002;5.468;2023-04-16T01:30:20;102037.06;;;9.97;94.06
68075;BME280;54864;52.002;5.468;2023-04-16T01:31:21;102040.25;;;10.11;94.01
68075;BME280;54864;52.002;5.468;2023-04-16T01:32:23;102041.38;;;10.01;93.97
68075;BME280;54864;52.002;5.468;2023-04-16T01:33:23;102044.84;;;10.03;93.71
68075;BME280;54864;52.002;5.468;2023-04-16T01:34:25;102035.16;;;10.04;93.57
68075;BME280;54864;52.002;5.468;2023-04-16T01:35:26;102048.19;;;10.10;93.40
68075;BME280;54864;52.002;5.468;2023-04-16T01:36:29;102047.50;;;10.02;93.67
68075;BME280;54864;52.002;5.468;2023-04-16T01:37:30;102044.69;;;10.09;93.74
68075;BME280;54864;52.002;5.468;2023-04-16T01:38:32;102051.72;;;10.09;93.58
68075;BME280;54864;52.002;5.468;2023-04-16T01:39:32;102046.31;;;10.15;92.97
68075;BME280;54864;52.002;5.468;2023-04-16T01:40:34;102050.59;;;10.19;93.19
68075;BME280;54864;52.002;5.468;2023-04-16T01:41:36;102058.25;;;10.31;92.39
68075;BME280;54864;52.002;5.468;2023-04-16T01:42:37;102058.66;;;10.13;92.75
68075;BME280;54864;52.002;5.468;2023-04-16T01:43:38;102040.50;;;10.01;92.56
68075;BME280;54864;52.002;5.468;2023-04-16T01:44:41;102048.41;;;10.01;94.13
68075;BME280;54864;52.002;5.468;2023-04-16T01:45:42;102048.56;;;9.95;94.10
68075;BME280;54864;52.002;5.468;2023-04-16T01:46:44;102051.19;;;9.95;94.20
68075;BME280;54864;52.002;5.468;2023-04-16T01:47:44;102046.69;;;10.00;94.48
68075;BME280;54864;52.002;5.468;2023-04-16T01:48:47;102052.94;;;9.94;94.47
68075;BME280;54864;52.002;5.468;2023-04-16T01:49:47;102051.13;;;9.98;94.69
68075;BME280;54864;52.002;5.468;2023-04-16T01:50:49;102050.09;;;10.03;94.64
68075;BME280;54864;52.002;5.468;2023-04-16T01:51:51;102048.38;;;10.02;93.92
68075;BME280;54864;52.002;5.468;2023-04-16T01:52:53;102045.66;;;10.05;94.47
68075;BME280;54864;52.002;5.468;2023-04-16T01:53:54;102053.34;;;10.14;94.24
68075;BME280;54864;52.002;5.468;2023-04-16T01:54:57;102047.13;;;10.17;93.91
68075;BME280;54864;52.002;5.468;2023-04-16T01:55:58;102059.59;;;10.10;93.06
68075;BME280;54864;52.002;5.468;2023-04-16T01:56:59;102050.31;;;9.94;93.89
68075;BME280;54864;52.002;5.468;2023-04-16T01:58:01;102055.31;;;10.06;94.26
68075;BME280;54864;52.002;5.468;2023-04-16T01:59:02;102055.47;;;9.99;94.26
68075;BME280;54864;52.002;5.468;2023-04-16T02:00:06;102055.41;;;10.02;94.38
68075;BME280;54864;52.002;5.468;2023-04-16T02:01:09;102054.56;;;10.00;94.52
68075;BME280;54864;52.002;5.468;2023-04-16T02:02:10;102051.03;;;10.01;94.26
68075;BME280;54864;52.002;5.468;2023-04-16T02:03:14;102059.81;;;10.01;94.43
68075;BME280;54864;52.002;5.468;2023-04-16T02:04:16;102061.66;;;9.98;94.20
68075;BME280;54864;52.002;5.468;2023-04-16T02:05:18;102056.44;;;9.95;94.36
68075;BME280;54864;52.002;5.468;2023-04-16T02:06:19;102055.94;;;9.79;95.36
68075;BME280;54864;52.002;5.468;2023-04-16T02:07:22;102049.50;;;9.92;95.56
68075;BME280;54864;52.002;5.468;2023-04-16T02:08:23;102051.84;;;10.04;94.95
68075;BME280;54864;52.002;5.468;2023-04-16T02:09:25;102056.28;;;10.02;94.43
68075;BME280;54864;52.002;5.468;2023-04-16T02:10:28;102050.25;;;9.97;94.74
68075;BME280;54864;52.002;5.468;2023-04-16T02:11:29;102050.81;;;10.10;94.05
68075;BME280;54864;52.002;5.468;2023-04-16T02:12:30;102045.53;;;10.11;93.53
68075;BME280;54864;52.002;5.468;2023-04-16T02:13:32;102052.75;;;10.03;94.13
68075;BME280;54864;52.002;5.468;2023-04-16T02:14:33;102044.31;;;9.88;94.65
68075;BME280;54864;52.002;5.468;2023-04-16T02:15:34;102058.22;;;9.94;94.62
68075;BME280;54864;52.002;5.468;2023-04-16T02:16:35;102053.59;;;10.04;94.59
68075;BME280;54864;52.002;5.468;2023-04-16T02:17:36;102054.00;;;9.87;95.23
68075;BME280;54864;52.002;5.468;2023-04-16T02:18:37;102051.25;;;9.92;95.51
68075;BME280;54864;52.002;5.468;2023-04-16T02:19:44;102046.31;;;9.78;96.14
68075;BME280;54864;52.002;5.468;2023-04-16T02:20:45;102049.47;;;9.52;97.11
68075;BME280;54864;52.002;5.468;2023-04-16T02:21:50;102045.72;;;9.64;97.87
68075;BME280;54864;52.002;5.468;2023-04-16T02:22:52;102052.47;;;9.77;97.16
68075;BME280;54864;52.002;5.468;2023-04-16T02:23:53;102044.19;;;9.94;96.44
68075;BME280;54864;52.002;5.468;2023-04-16T02:24:54;102051.47;;;9.82;96.18
68075;BME280;54864;52.002;5.468;2023-04-16T02:25:56;102052.94;;;9.94;95.69
68075;BME280;54864;52.002;5.468;2023-04-16T02:26:58;102050.31;;;9.94;95.36
68075;BME280;54864;52.002;5.468;2023-04-16T02:27:58;102051.22;;;9.93;95.53
68075;BME280;54864;52.002;5.468;2023-04-16T02:29:00;102046.78;;;9.95;95.36
68075;BME280;54864;52.002;5.468;2023-04-16T02:30:01;102048.16;;;9.71;95.88
68075;BME280;54864;52.002;5.468;2023-04-16T02:31:03;102049.53;;;9.91;96.01
68075;BME280;54864;52.002;5.468;2023-04-16T02:32:04;102050.00;;;9.68;96.48
68075;BME280;54864;52.002;5.468;2023-04-16T02:33:08;102047.97;;;9.82;97.08
68075;BME280;54864;52.002;5.468;2023-04-16T02:34:09;102050.50;;;9.87;95.99
68075;BME280;54864;52.002;5.468;2023-04-16T02:35:11;102053.78;;;9.96;95.87
68075;BME280;54864;52.002;5.468;2023-04-16T02:36:12;102047.66;;;9.96;95.81
68075;BME280;54864;52.002;5.468;2023-04-16T02:37:13;102046.69;;;10.00;95.26
68075;BME280;54864;52.002;5.468;2023-04-16T02:38:16;102051.00;;;10.02;95.34
68075;BME280;54864;52.002;5.468;2023-04-16T02:39:18;102054.63;;;9.98;95.22
68075;BME280;54864;52.002;5.468;2023-04-16T02:40:19;102054.97;;;9.83;95.77
68075;BME280;54864;52.002;5.468;2023-04-16T02:41:21;102045.47;;;9.76;96.89
68075;BME280;54864;52.002;5.468;2023-04-16T02:42:21;102052.41;;;9.80;96.55
68075;BME280;54864;52.002;5.468;2023-04-16T02:43:23;102046.28;;;9.79;96.99
68075;BME280;54864;52.002;5.468;2023-04-16T02:44:24;102049.94;;;9.71;96.19
68075;BME280;54864;52.002;5.468;2023-04-16T02:45:26;102047.31;;;9.71;97.61
68075;BME280;54864;52.002;5.468;2023-04-16T02:46:27;102045.50;;;9.73;97.33
68075;BME280;54864;52.002;5.468;2023-04-16T02:47:28;102055.38;;;9.63;97.80
68075;BME280;54864;52.002;5.468;2023-04-16T02:48:29;102056.09;;;9.70;97.58
68075;BME280;54864;52.002;5.468;2023-04-16T02:49:32;102058.22;;;9.54;98.17
68075;BME280;54864;52.002;5.468;2023-04-16T02:50:33;102055.13;;;9.74;98.50
68075;BME280;54864;52.002;5.468;2023-04-16T02:51:35;102049.03;;;9.72;98.20
68075;BME280;54864;52.002;5.468;2023-04-16T02:52:36;102045.50;;;9.73;98.27
68075;BME280;54864;52.002;5.468;2023-04-16T02:53:39;102057.69;;;9.78;97.89
68075;BME280;54864;52.002;5.468;2023-04-16T02:54:44;102056.44;;;9.95;97.04
68075;BME280;54864;52.002;5.468;2023-04-16T02:55:49;102063.41;;;9.97;96.29
68075;BME280;54864;52.002;5.468;2023-04-16T02:56:51;102060.75;;;9.99;96.20
68075;BME280;54864;52.002;5.468;2023-04-16T02:57:52;102060.72;;;10.00;95.90
68075;BME280;54864;52.002;5.468;2023-04-16T02:58:56;102070.47;;;9.97;95.53
68075;BME280;54864;52.002;5.468;2023-04-16T02:59:57;102061.69;;;9.96;95.61
68075;BME280;54864;52.002;5.468;2023-04-16T03:00:59;102059.63;;;10.09;95.32
68075;BME280;54864;52.002;5.468;2023-04-16T03:01:59;102060.34;;;10.15;94.23
68075;BME280;54864;52.002;5.468;2023-04-16T03:03:01;102061.81;;;10.29;93.85
68075;BME280;54864;52.002;5.468;2023-04-16T03:04:02;102065.19;;;10.35;93.30
68075;BME280;54864;52.002;5.468;2023-04-16T03:05:05;102066.72;;;10.45;92.56
68075;BME280;54864;52.002;5.468;2023-04-16T03:06:06;102056.25;;;10.42;91.85
68075;BME280;54864;52.002;5.468;2023-04-16T03:07:07;102062.56;;;10.34;91.98
68075;BME280;54864;52.002;5.468;2023-04-16T03:08:08;102058.31;;;10.28;92.34
68075;BME280;54864;52.002;5.468;2023-04-16T03:09:12;102066.13;;;10.33;92.46
68075;BME280;54864;52.002;5.468;2023-04-16T03:10:15;102056.28;;;10.41;92.05
68075;BME280;54864;52.002;5.468;2023-04-16T03:11:17;102061.25;;;10.53;91.27
68075;BME280;54864;52.002;5.468;2023-04-16T03:12:19;102067.31;;;10.57;91.17
68075;BME280;54864;52.002;5.468;2023-04-16T03:13:20;102061.97;;;10.23;92.10
68075;BME280;54864;52.002;5.468;2023-04-16T03:14:21;102069.47;;;10.39;91.54
68075;BME280;54864;52.002;5.468;2023-04-16T03:15:23;102070.75;;;10.23;91.75
68075;BME280;54864;52.002;5.468;2023-04-16T03:16:25;102071.53;;;10.27;92.20
68075;BME280;54864;52.002;5.468;2023-04-16T03:17:26;102072.22;;;10.35;91.51
68075;BME280;54864;52.002;5.468;2023-04-16T03:18:27;102069.66;;;10.32;91.64
68075;BME280;54864;52.002;5.468;2023-04-16T03:19:29;102075.22;;;10.18;92.21
68075;BME280;54864;52.002;5.468;2023-04-16T03:20:29;102072.41;;;10.27;92.82
68075;BME280;54864;52.002;5.468;2023-04-16T03:21:31;102066.00;;;10.37;92.11
68075;BME280;54864;52.002;5.468;2023-04-16T03:22:32;102070.34;;;10.41;91.37
68075;BME280;54864;52.002;5.468;2023-04-16T03:23:34;102071.31;;;10.36;91.39
68075;BME280;54864;52.002;5.468;2023-04-16T03:24:37;102078.53;;;10.28;92.25
68075;BME280;54864;52.002;5.468;2023-04-16T03:25:41;102072.94;;;10.43;91.36
68075;BME280;54864;52.002;5.468;2023-04-16T03:26:45;102075.41;;;10.49;90.79
68075;BME280;54864;52.002;5.468;2023-04-16T03:27:47;102070.44;;;10.35;90.80
68075;BME280;54864;52.002;5.468;2023-04-16T03:28:48;102079.00;;;10.46;90.97
68075;BME280;54864;52.002;5.468;2023-04-16T03:29:49;102077.81;;;10.58;89.68
68075;BME280;54864;52.002;5.468;2023-04-16T03:30:50;102080.34;;;10.26;90.77
68075;BME280;54864;52.002;5.468;2023-04-16T03:31:52;102081.50;;;10.12;91.68
68075;BME280;54864;52.002;5.468;2023-04-16T03:32:53;102082.91;;;10.29;92.18
68075;BME280;54864;52.002;5.468;2023-04-16T03:33:55;102082.94;;;10.27;91.93
68075;BME280;54864;52.002;5.468;2023-04-16T03:34:55;102082.72;;;10.36;91.54
68075;BME280;54864;52.002;5.468;2023-04-16T03:35:57;102084.75;;;10.25;91.79
68075;BME280;54864;52.002;5.468;2023-04-16T03:37:00;102077.69;;;10.27;91.98
68075;BME280;54864;52.002;5.468;2023-04-16T03:38:02;102077.41;;;10.38;91.44
68075;BME280;54864;52.002;5.468;2023-04-16T03:39:03;102083.41;;;10.46;91.13
68075;BME280;54864;52.002;5.468;2023-04-16T03:40:07;102092.09;;;10.50;90.69
68075;BME280;54864;52.002;5.468;2023-04-16T03:41:08;102081.69;;;10.43;90.39
68075;BME280;54864;52.002;5.468;2023-04-16T03:42:09;102084.38;;;10.42;90.95
68075;BME280;54864;52.002;5.468;2023-04-16T03:43:12;102089.75;;;10.36;90.75
68075;BME280;54864;52.002;5.468;2023-04-16T03:44:25;102083.75;;;10.31;91.10
68075;BME280;54864;52.002;5.468;2023-04-16T03:45:26;102084.53;;;10.34;91.28
68075;BME280;54864;52.002;5.468;2023-04-16T03:46:27;102083.44;;;10.44;90.87
68075;BME280;54864;52.002;5.468;2023-04-16T03:47:28;102084.53;;;10.34;90.69
68075;BME280;54864;52.002;5.468;2023-04-16T03:48:30;102085.22;;;10.44;90.75
68075;BME280;54864;52.002;5.468;2023-04-16T03:49:31;102090.88;;;10.26;91.56
68075;BME280;54864;52.002;5.468;2023-04-16T03:50:32;102082.94;;;10.27;91.64
68075;BME280;54864;52.002;5.468;2023-04-16T03:51:33;102087.84;;;10.44;91.00
68075;BME280;54864;52.002;5.468;2023-04-16T03:52:35;102087.28;;;10.30;91.76
68075;BME280;54864;52.002;5.468;2023-04-16T03:53:36;102087.13;;;10.36;91.50
68075;BME280;54864;52.002;5.468;2023-04-16T03:54:37;102094.13;;;10.37;91.68
68075;BME280;54864;52.002;5.468;2023-04-16T03:55:39;102085.25;;;10.42;91.60
68075;BME280;54864;52.002;5.468;2023-04-16T03:56:41;102083.34;;;10.47;90.93
68075;BME280;54864;52.002;5.468;2023-04-16T03:57:42;102074.88;;;10.33;91.24
68075;BME280;54864;52.002;5.468;2023-04-16T03:58:44;102084.91;;;10.17;92.20
68075;BME280;54864;52.002;5.468;2023-04-16T03:59:45;102082.38;;;10.13;92.67
68075;BME280;54864;52.002;5.468;2023-04-16T04:00:47;102079.88;;;10.07;93.24
68075;BME280;54864;52.002;5.468;2023-04-16T04:01:47;102079.78;;;10.11;93.53
68075;BME280;54864;52.002;5.468;2023-04-16T04:02:50;102084.69;;;10.28;92.85
68075;BME280;54864;52.002;5.468;2023-04-16T04:03:50;102086.25;;;10.35;92.22
68075;BME280;54864;52.002;5.468;2023-04-16T04:04:52;102084.50;;;10.36;91.78
68075;BME280;54864;52.002;5.468;2023-04-16T04:05:53;102087.06;;;10.39;91.88
68075;BME280;54864;52.002;5.468;2023-04-16T04:06:54;102080.88;;;10.41;91.25
68075;BME280;54864;52.002;5.468;2023-04-16T04:07:55;102092.16;;;10.46;91.21
68075;BME280;54864;52.002;5.468;2023-04-16T04:08:57;102093.00;;;10.48;90.93
68075;BME280;54864;52.002;5.468;2023-04-16T04:10:00;102083.59;;;10.37;91.08
68075;BME280;54864;52.002;5.468;2023-04-16T04:11:03;102086.44;;;10.28;91.65
68075;BME280;54864;52.002;5.468;2023-04-16T04:12:04;102089.81;;;10.34;91.49
68075;BME280;54864;52.002;5.468;2023-04-16T04:13:06;102086.09;;;10.43;91.41
68075;BME280;54864;52.002;5.468;2023-04-16T04:14:07;102081.78;;;10.39;91.40
68075;BME280;54864;52.002;5.468;2023-04-16T04:15:09;102087.69;;;10.50;91.01
68075;BME280;54864;52.002;5.468;2023-04-16T04:16:11;102086.63;;;10.57;90.29
68075;BME280;54864;52.002;5.468;2023-04-16T04:17:12;102086.97;;;10.43;90.74
68075;BME280;54864;52.002;5.468;2023-04-16T04:18:13;102088.22;;;10.27;91.45
68075;BME280;54864;52.002;5.468;2023-04-16T04:19:15;102086.94;;;10.45;91.17
68075;BME280;54864;52.002;5.468;2023-04-16T04:20:17;102094.22;;;10.34;91.40
68075;BME280;54864;52.002;5.468;2023-04-16T04:21:18;102091.88;;;10.22;92.38
68075;BME280;54864;52.002;5.468;2023-04-16T04:22:19;102090.72;;;10.33;92.04
68075;BME280;54864;52.002;5.468;2023-04-16T04:23:21;102090.84;;;10.27;91.45
68075;BME280;54864;52.002;5.468;2023-04-16T04:24:21;102078.63;;;10.25;92.09
68075;BME280;54864;52.002;5.468;2023-04-16T04:25:23;102092.00;;;10.14;92.64
68075;BME280;54864;52.002;5.468;2023-04-16T04:26:25;102091.09;;;10.15;93.24
68075;BME280;54864;52.002;5.468;2023-04-16T04:27:27;102088.78;;;10.01;94.01
68075;BME280;54864;52.002;5.468;2023-04-16T04:28:28;102092.25;;;10.03;93.71
68075;BME280;54864;52.002;5.468;2023-04-16T04:29:30;102094.91;;;10.03;93.87
68075;BME280;54864;52.002;5.468;2023-04-16T04:30:31;102093.00;;;10.10;94.00
68075;BME280;54864;52.002;5.468;2023-04-16T04:31:32;102098.03;;;10.21;93.37
68075;BME280;54864;52.002;5.468;2023-04-16T04:32:33;102092.50;;;10.31;92.92
68075;BME280;54864;52.002;5.468;2023-04-16T04:33:35;102092.66;;;10.25;92.64
68075;BME280;54864;52.002;5.468;2023-04-16T04:34:35;102093.78;;;10.13;93.27
68075;BME280;54864;52.002;5.468;2023-04-16T04:35:37;102093.53;;;10.26;93.01
68075;BME280;54864;52.002;5.468;2023-04-16T04:36:38;102097.63;;;9.99;93.88
68075;BME280;54864;52.002;5.468;2023-04-16T04:37:40;102093.03;;;10.08;94.40
68075;BME280;54864;52.002;5.468;2023-04-16T04:38:41;102092.59;;;9.88;94.73
68075;BME280;54864;52.002;5.468;2023-04-16T04:39:42;102098.59;;;9.95;94.57
68075;BME280;54864;52.002;5.468;2023-04-16T04:40:43;102100.22;;;10.00;95.08
68075;BME280;54864;52.002;5.468;2023-04-16T04:41:47;102099.91;;;10.14;93.78
68075;BME280;54864;52.002;5.468;2023-04-16T04:42:48;102103.25;;;10.24;93.89
68075;BME280;54864;52.002;5.468;2023-04-16T04:43:50;102098.47;;;10.01;94.10
68075;BME280;54864;52.002;5.468;2023-04-16T04:44:53;102109.50;;;10.18;94.12
68075;BME280;54864;52.002;5.468;2023-04-16T04:45:54;102098.16;;;10.14;93.61
68075;BME280;54864;52.002;5.468;2023-04-16T04:46:55;102105.28;;;10.09;93.74
68075;BME280;54864;52.002;5.468;2023-04-16T04:47:57;102104.56;;;10.03;94.34
68075;BME280;54864;52.002;5.468;2023-04-16T04:48:58;102104.66;;;9.98;94.58
68075;BME280;54864;52.002;5.468;2023-04-16T04:50:00;102113.00;;;10.18;94.09
68075;BME280;54864;52.002;5.468;2023-04-16T04:51:00;102113.59;;;10.31;93.43
68075;BME280;54864;52.002;5.468;2023-04-16T04:52:04;102104.75;;;10.34;92.92
68075;BME280;54864;52.002;5.468;2023-04-16T04:53:05;102113.56;;;10.33;92.62
68075;BME280;54864;52.002;5.468;2023-04-16T04:54:09;102111.91;;;10.29;92.50
68075;BME280;54864;52.002;5.468;2023-04-16T04:55:10;102111.22;;;10.21;92.65
68075;BME280;54864;52.002;5.468;2023-04-16T04:56:13;102116.97;;;10.38;92.30
68075;BME280;54864;52.002;5.468;2023-04-16T04:57:15;102118.16;;;10.25;92.21
68075;BME280;54864;52.002;5.468;2023-04-16T04:58:17;102111.22;;;10.19;92.91
68075;BME280;54864;52.002;5.468;2023-04-16T04:59:19;102110.41;;;10.15;93.14
68075;BME280;54864;52.002;5.468;2023-04-16T05:00:20;102110.91;;;9.94;93.90
68075;BME280;54864;52.002;5.468;2023-04-16T05:01:21;102117.06;;;9.93;93.81
68075;BME280;54864;52.002;5.468;2023-04-16T05:02:23;102111.38;;;9.71;95.36
68075;BME280;54864;52.002;5.468;2023-04-16T05:03:24;102114.72;;;9.36;97.27
68075;BME280;54864;52.002;5.468;2023-04-16T05:04:26;102122.44;;;9.45;99.00
68075;BME280;54864;52.002;5.468;2023-04-16T05:05:27;102120.41;;;9.60;98.71
68075;BME280;54864;52.002;5.468;2023-04-16T05:06:28;102114.66;;;9.84;97.37
68075;BME280;54864;52.002;5.468;2023-04-16T05:07:29;102111.06;;;9.87;97.17
68075;BME280;54864;52.002;5.468;2023-04-16T05:08:31;102114.84;;;9.73;97.25
68075;BME280;54864;52.002;5.468;2023-04-16T05:09:34;102114.63;;;9.85;96.87
68075;BME280;54864;52.002;5.468;2023-04-16T05:10:36;102114.31;;;9.56;98.07
68075;BME280;54864;52.002;5.468;2023-04-16T05:11:37;102117.66;;;9.64;98.59
68075;BME280;54864;52.002;5.468;2023-04-16T05:12:44;102118.22;;;9.81;97.71
68075;BME280;54864;52.002;5.468;2023-04-16T05:13:46;102116.66;;;9.70;97.69
68075;BME280;54864;52.002;5.468;2023-04-16T05:14:48;102115.50;;;9.84;97.85
68075;BME280;54864;52.002;5.468;2023-04-16T05:15:48;102118.91;;;9.90;97.16
68075;BME280;54864;52.002;5.468;2023-04-16T05:16:50;102115.00;;;10.07;95.90
68075;BME280;54864;52.002;5.468;2023-04-16T05:17:53;102116.25;;;9.91;95.61
68075;BME280;54864;52.002;5.468;2023-04-16T05:18:56;102114.16;;;9.64;97.00
68075;BME280;54864;52.002;5.468;2023-04-16T05:19:57;102110.28;;;9.83;97.16
68075;BME280;54864;52.002;5.468;2023-04-16T05:20:59;102116.25;;;9.91;96.73
68075;BME280;54864;52.002;5.468;2023-04-16T05:21:59;102114.56;;;9.87;96.98
68075;BME280;54864;52.002;5.468;2023-04-16T05:23:02;102120.69;;;9.89;96.93
68075;BME280;54864;52.002;5.468;2023-04-16T05:24:03;102119.78;;;9.90;96.44
68075;BME280;54864;52.002;5.468;2023-04-16T05:25:05;102119.59;;;9.98;95.94